Time;durP1;ratioP1;P1;durP2;ratioP2;P2;SDS_P1;SDS_P2;PMS_P1;PMS_P2;Temp;Humidity;BMP_temperature;BMP_pressure;BME280_temperature;BME280_humidity;BME280_pressure;Samples;Min_cycle;Max_cycle;Signal;HPM_P1;HPM_P2
2023/07/10 00:00:51;;;;;;;;;;;;;;;24.26;62.84;100962.59;4823888;29;6813;-72
2023/07/10 00:03:18;;;;;;;;;;;;;;;24.29;62.44;100955.63;4841703;29;7034;-72
2023/07/10 00:05:43;;;;;;;;;;;;;;;24.32;63.06;100950.38;4840866;29;6975;-72
2023/07/10 00:08:09;;;;;;;;;;;;;;;24.37;63.26;100953.88;4841853;29;7298;-72
2023/07/10 00:10:34;;;;;;;;;;;;;;;24.42;63.27;100957.34;4842758;29;6768;-72
2023/07/10 00:13:00;;;;;;;;;;;;;;;24.48;62.89;100952.13;4857083;29;7482;-72
2023/07/10 00:15:26;;;;;;;;;;;;;;;24.53;63.06;100950.38;4835743;29;6951;-74
2023/07/10 00:17:52;;;;;;;;;;;;;;;24.55;63.08;100959.09;4845457;29;7005;-72
2023/07/10 00:20:20;;;;;;;;;;;;;;;24.60;62.77;100963.44;4841322;29;7047;-72
2023/07/10 00:22:46;;;;;;;;;;;;;;;24.60;63.26;100961.72;4844666;29;6789;-72
2023/07/10 00:25:15;;;;;;;;;;;;;;;24.60;63.01;100958.22;4825427;29;6982;-72
2023/07/10 00:27:42;;;;;;;;;;;;;;;24.61;63.29;100952.09;4845107;29;6976;-72
2023/07/10 00:30:16;;;;;;;;;;;;;;;24.60;63.22;100945.09;4842077;29;7249;-71
2023/07/10 00:32:43;;;;;;;;;;;;;;;24.62;62.93;100935.50;4859230;29;11517;-71
2023/07/10 00:35:09;;;;;;;;;;;;;;;24.61;62.50;100932.00;4843066;29;7058;-71
2023/07/10 00:37:34;;;;;;;;;;;;;;;24.60;62.98;100929.38;4852969;29;6765;-72
2023/07/10 00:40:00;;;;;;;;;;;;;;;24.58;62.71;100923.28;4845187;29;6977;-72
2023/07/10 00:42:26;;;;;;;;;;;;;;;24.55;63.07;100922.41;4840531;29;6780;-72
2023/07/10 00:44:57;;;;;;;;;;;;;;;24.52;62.89;100927.66;4842137;29;6801;-72
2023/07/10 00:47:46;;;;;;;;;;;;;;;24.50;62.59;100923.31;4858802;29;6848;-72
2023/07/10 00:50:24;;;;;;;;;;;;;;;24.46;61.96;100932.03;4840253;29;7211;-72
2023/07/10 00:52:50;;;;;;;;;;;;;;;24.43;62.55;100932.91;4861032;29;6816;-72
2023/07/10 00:55:20;;;;;;;;;;;;;;;24.40;62.65;100943.38;4826262;29;6873;-72
2023/07/10 00:57:50;;;;;;;;;;;;;;;24.38;62.31;100945.13;4843610;29;7107;-72
2023/07/10 01:00:20;;;;;;;;;;;;;;;24.34;61.84;100948.66;4837386;29;6849;-72
2023/07/10 01:02:46;;;;;;;;;;;;;;;24.30;62.28;100953.00;4857647;29;8190;-72
2023/07/10 01:05:13;;;;;;;;;;;;;;;24.29;62.01;100950.38;4841825;29;6872;-72
2023/07/10 01:07:43;;;;;;;;;;;;;;;24.23;62.32;100952.13;4842244;29;6958;-72
2023/07/10 01:10:10;;;;;;;;;;;;;;;24.20;61.93;100954.75;4842885;29;6812;-72
2023/07/10 01:12:38;;;;;;;;;;;;;;;24.16;61.97;100958.25;4846718;29;6937;-72
2023/07/10 01:15:06;;;;;;;;;;;;;;;24.12;61.50;100948.63;4858341;29;6852;-72
2023/07/10 01:17:33;;;;;;;;;;;;;;;24.10;62.05;100950.38;4863154;29;7205;-72
2023/07/10 01:20:23;;;;;;;;;;;;;;;24.06;61.80;100944.25;4861518;29;7171;-72
2023/07/10 01:22:48;;;;;;;;;;;;;;;24.03;61.40;100945.97;4847218;29;6789;-72
2023/07/10 01:25:14;;;;;;;;;;;;;;;24.00;61.88;100939.00;4859339;29;6777;-72
2023/07/10 01:27:39;;;;;;;;;;;;;;;23.97;61.48;100944.22;4851428;29;6785;-72
2023/07/10 01:30:14;;;;;;;;;;;;;;;23.93;61.31;100947.72;4848940;29;6851;-72
2023/07/10 01:32:40;;;;;;;;;;;;;;;23.89;61.36;100953.81;4859533;29;11487;-72
2023/07/10 01:35:09;;;;;;;;;;;;;;;23.84;60.98;100951.19;4864473;29;6847;-72
2023/07/10 01:37:34;;;;;;;;;;;;;;;23.81;61.51;100957.31;4856132;29;7220;-72
2023/07/10 01:40:00;;;;;;;;;;;;;;;23.79;60.56;100951.16;4860509;29;6793;-72
2023/07/10 01:42:25;;;;;;;;;;;;;;;23.78;60.44;100945.97;4862433;29;6976;-71
2023/07/10 01:44:51;;;;;;;;;;;;;;;23.76;60.92;100945.94;4860658;29;7121;-71
2023/07/10 01:47:17;;;;;;;;;;;;;;;23.75;60.42;100957.28;4859062;29;6777;-71
2023/07/10 01:49:51;;;;;;;;;;;;;;;23.73;60.67;100964.25;4844822;29;6821;-72
2023/07/10 01:52:19;;;;;;;;;;;;;;;23.72;60.77;100966.00;4843353;29;7009;-72
2023/07/10 01:54:45;;;;;;;;;;;;;;;23.70;60.59;100964.22;4850129;29;6784;-71
2023/07/10 01:57:13;;;;;;;;;;;;;;;23.67;60.67;100980.81;4832483;29;7238;-71
2023/07/10 01:59:38;;;;;;;;;;;;;;;23.66;60.75;100972.97;4859764;29;6830;-72
2023/07/10 02:02:05;;;;;;;;;;;;;;;23.64;60.72;100982.56;4857940;29;6982;-71
2023/07/10 02:04:30;;;;;;;;;;;;;;;23.62;60.25;100987.78;4858438;29;6903;-71
2023/07/10 02:06:56;;;;;;;;;;;;;;;23.62;60.95;100994.75;4861963;29;6773;-71
2023/07/10 02:09:23;;;;;;;;;;;;;;;23.61;60.32;100991.25;4855973;29;6760;-72
2023/07/10 02:11:49;;;;;;;;;;;;;;;23.60;60.83;100996.47;4860293;29;6797;-71
2023/07/10 02:14:15;;;;;;;;;;;;;;;23.59;61.00;100995.63;4863052;29;6961;-72
2023/07/10 02:16:40;;;;;;;;;;;;;;;23.59;60.87;100993.00;4861521;29;7320;-72
2023/07/10 02:19:07;;;;;;;;;;;;;;;23.61;60.73;100987.75;4858308;29;6753;-71
2023/07/10 02:21:32;;;;;;;;;;;;;;;23.58;60.69;100984.25;4843631;29;7072;-72
2023/07/10 02:23:58;;;;;;;;;;;;;;;23.55;60.39;100986.88;4854025;29;7165;-71
2023/07/10 02:26:24;;;;;;;;;;;;;;;23.51;60.19;100992.09;4840479;29;6966;-72
2023/07/10 02:28:50;;;;;;;;;;;;;;;23.46;59.79;100989.47;4842263;29;6963;-72
2023/07/10 02:31:15;;;;;;;;;;;;;;;23.42;60.26;100999.03;4842437;29;6796;-70
2023/07/10 02:33:41;;;;;;;;;;;;;;;23.37;60.11;101013.84;4840107;29;6976;-72
2023/07/10 02:36:06;;;;;;;;;;;;;;;23.35;59.98;101007.72;4841647;29;6990;-69
2023/07/10 02:38:32;;;;;;;;;;;;;;;23.33;60.60;100999.00;4843838;29;7172;-69
2023/07/10 02:40:58;;;;;;;;;;;;;;;23.31;60.77;101003.34;4858581;29;6756;-69
2023/07/10 02:43:24;;;;;;;;;;;;;;;23.28;60.03;101011.19;4842208;29;6947;-70
2023/07/10 02:45:49;;;;;;;;;;;;;;;23.26;60.53;101020.72;4840688;29;9897;-69
2023/07/10 02:48:15;;;;;;;;;;;;;;;23.23;60.85;101018.09;4845067;29;6769;-72
2023/07/10 02:50:42;;;;;;;;;;;;;;;23.20;60.65;101026.78;4849823;29;6950;-69
2023/07/10 02:53:07;;;;;;;;;;;;;;;23.16;60.75;101028.50;4859049;29;6793;-69
2023/07/10 02:55:33;;;;;;;;;;;;;;;23.10;60.54;101015.41;4840651;29;6776;-69
2023/07/10 02:58:00;;;;;;;;;;;;;;;23.07;60.98;101007.53;4854598;29;6936;-68
2023/07/10 03:00:25;;;;;;;;;;;;;;;23.05;60.68;100997.97;4845623;29;6797;-71
2023/07/10 03:02:54;;;;;;;;;;;;;;;23.02;61.01;100994.44;4856619;29;7215;-71
2023/07/10 03:05:21;;;;;;;;;;;;;;;23.00;60.66;100990.94;4843712;29;7322;-69
2023/07/10 03:07:47;;;;;;;;;;;;;;;22.99;60.70;100996.19;4845016;29;6789;-70
2023/07/10 03:10:12;;;;;;;;;;;;;;;22.97;61.05;101000.50;4841011;29;6911;-70
2023/07/10 03:12:38;;;;;;;;;;;;;;;22.96;60.87;101007.50;4847638;29;6959;-71
2023/07/10 03:15:05;;;;;;;;;;;;;;;22.96;61.37;101022.28;4842218;29;7088;-71
2023/07/10 03:17:32;;;;;;;;;;;;;;;22.96;61.54;101022.28;4840819;29;6776;-71
2023/07/10 03:19:57;;;;;;;;;;;;;;;22.95;61.60;101024.03;4824231;29;6890;-72
2023/07/10 03:22:23;;;;;;;;;;;;;;;22.96;61.46;101020.56;4842400;29;7120;-69
2023/07/10 03:24:51;;;;;;;;;;;;;;;22.97;60.97;101016.19;4843758;29;6769;-71
2023/07/10 03:27:17;;;;;;;;;;;;;;;22.96;60.94;101019.66;4841468;29;7191;-70
2023/07/10 03:29:42;;;;;;;;;;;;;;;22.96;60.75;101012.72;4846557;29;7152;-72
2023/07/10 03:32:08;;;;;;;;;;;;;;;22.96;61.21;101009.22;4851991;29;7120;-71
2023/07/10 03:34:34;;;;;;;;;;;;;;;22.95;61.52;101015.31;4825474;29;8514;-68
2023/07/10 03:36:59;;;;;;;;;;;;;;;22.94;61.14;101016.19;4855150;29;7141;-68
2023/07/10 03:39:25;;;;;;;;;;;;;;;22.93;61.32;101019.66;4843161;29;6764;-71
2023/07/10 03:41:50;;;;;;;;;;;;;;;22.92;61.11;101029.22;4854522;29;6764;-69
2023/07/10 03:44:16;;;;;;;;;;;;;;;22.91;60.96;101026.63;4851313;29;6936;-70
2023/07/10 03:46:42;;;;;;;;;;;;;;;22.92;61.48;101030.97;4853633;29;6973;-68
2023/07/10 03:49:07;;;;;;;;;;;;;;;22.92;61.36;101033.59;4858653;29;6777;-70
2023/07/10 03:51:33;;;;;;;;;;;;;;;22.91;61.03;101031.84;4853875;29;7269;-71
2023/07/10 03:53:58;;;;;;;;;;;;;;;22.89;60.82;101030.09;4856934;29;6902;-69
2023/07/10 03:56:24;;;;;;;;;;;;;;;22.91;61.16;101037.94;4858968;29;7033;-69
2023/07/10 03:58:49;;;;;;;;;;;;;;;22.90;61.27;101041.41;4838577;29;6773;-69
2023/07/10 04:01:16;;;;;;;;;;;;;;;22.88;60.78;101032.69;4839439;29;6761;-69
2023/07/10 04:03:41;;;;;;;;;;;;;;;22.86;60.88;101037.91;4841441;29;7515;-68
2023/07/10 04:06:12;;;;;;;;;;;;;;;22.83;60.53;101048.34;4843368;29;6745;-72
2023/07/10 04:08:40;;;;;;;;;;;;;;;22.82;61.00;101049.22;4843447;29;6793;-72
2023/07/10 04:11:26;;;;;;;;;;;;;;;22.82;60.81;101048.31;4843579;29;7332;-72
2023/07/10 04:13:51;;;;;;;;;;;;;;;22.81;60.82;101052.69;4847429;29;6980;-72
2023/07/10 04:16:22;;;;;;;;;;;;;;;22.82;61.37;101059.66;4844306;29;6815;-72
2023/07/10 04:18:50;;;;;;;;;;;;;;;22.82;60.71;101057.03;4858213;29;6948;-72
2023/07/10 04:21:25;;;;;;;;;;;;;;;22.83;61.14;101061.41;4844405;29;6792;-72
2023/07/10 04:23:51;;;;;;;;;;;;;;;22.85;61.50;101064.91;4863048;29;7171;-72
2023/07/10 04:26:26;;;;;;;;;;;;;;;22.85;60.96;101059.66;4846243;29;7289;-72
2023/07/10 04:28:54;;;;;;;;;;;;;;;22.86;61.16;101066.66;4847260;29;7292;-72
2023/07/10 04:31:21;;;;;;;;;;;;;;;22.87;61.12;101073.63;4863512;29;6839;-72
2023/07/10 04:33:46;;;;;;;;;;;;;;;22.88;60.99;101064.91;4846130;29;6900;-72
2023/07/10 04:36:12;;;;;;;;;;;;;;;22.92;60.70;101075.41;4843229;29;6849;-72
2023/07/10 04:38:38;;;;;;;;;;;;;;;22.93;60.67;101066.69;4847359;29;6935;-72
2023/07/10 04:41:06;;;;;;;;;;;;;;;22.93;60.55;101064.09;4845454;29;6918;-72
2023/07/10 04:43:33;;;;;;;;;;;;;;;22.94;60.80;101073.69;4842531;29;6974;-72
2023/07/10 04:46:01;;;;;;;;;;;;;;;22.95;60.08;101075.41;4858417;29;6788;-72
2023/07/10 04:48:27;;;;;;;;;;;;;;;22.96;60.56;101069.31;4844539;29;6845;-72
2023/07/10 04:50:54;;;;;;;;;;;;;;;22.98;60.86;101068.47;4846313;29;6937;-72
2023/07/10 04:53:21;;;;;;;;;;;;;;;23.03;60.06;101072.00;4858569;29;6810;-72
2023/07/10 04:55:48;;;;;;;;;;;;;;;23.06;60.28;101084.22;4865343;29;6828;-72
2023/07/10 04:58:14;;;;;;;;;;;;;;;23.08;60.00;101089.47;4844102;29;6785;-72
2023/07/10 05:00:40;;;;;;;;;;;;;;;23.10;59.61;101085.09;4825731;29;6967;-72
2023/07/10 05:03:06;;;;;;;;;;;;;;;23.12;59.88;101081.66;4849571;29;7001;-72
2023/07/10 05:05:32;;;;;;;;;;;;;;;23.17;60.07;101081.69;4859758;29;6894;-72
2023/07/10 05:08:00;;;;;;;;;;;;;;;23.22;59.72;101095.63;4845068;29;6840;-73
2023/07/10 05:10:26;;;;;;;;;;;;;;;23.28;59.88;101087.03;4846490;29;6801;-72
2023/07/10 05:12:51;;;;;;;;;;;;;;;23.35;59.92;101087.94;4846294;29;6820;-72
2023/07/10 05:15:17;;;;;;;;;;;;;;;23.41;59.56;101080.09;4844981;29;6852;-73
2023/07/10 05:17:42;;;;;;;;;;;;;;;23.48;59.43;101079.28;4859838;29;6832;-72
2023/07/10 05:20:08;;;;;;;;;;;;;;;23.56;59.80;101074.06;4842007;29;6768;-72
2023/07/10 05:22:35;;;;;;;;;;;;;;;23.64;59.32;101076.75;4843263;29;7224;-72
2023/07/10 05:25:00;;;;;;;;;;;;;;;23.70;59.52;101088.09;4837998;29;7703;-72
2023/07/10 05:27:26;;;;;;;;;;;;;;;23.76;59.13;101091.59;4858586;29;6912;-72
2023/07/10 05:29:51;;;;;;;;;;;;;;;23.83;58.86;101096.00;4827487;29;6939;-72
2023/07/10 05:32:17;;;;;;;;;;;;;;;23.88;58.91;101096.00;4839181;29;6982;-73
2023/07/10 05:34:42;;;;;;;;;;;;;;;23.93;58.98;101105.63;4837099;29;6934;-72
2023/07/10 05:37:08;;;;;;;;;;;;;;;23.99;59.47;101112.63;4841335;29;6776;-72
2023/07/10 05:39:34;;;;;;;;;;;;;;;24.06;58.97;101111.81;4827128;29;6936;-72
2023/07/10 05:41:59;;;;;;;;;;;;;;;24.15;58.97;101103.13;4842590;29;6988;-72
2023/07/10 05:44:25;;;;;;;;;;;;;;;24.24;58.66;101108.41;4822024;29;7225;-72
2023/07/10 05:46:51;;;;;;;;;;;;;;;24.34;59.04;101104.03;4823984;29;6989;-72
2023/07/10 05:49:17;;;;;;;;;;;;;;;24.45;58.89;101103.19;4841193;29;7924;-72
2023/07/10 05:51:43;;;;;;;;;;;;;;;24.56;58.58;101106.69;4840518;29;8379;-72
2023/07/10 05:54:08;;;;;;;;;;;;;;;24.65;58.79;101105.84;4866350;29;6858;-72
2023/07/10 05:56:34;;;;;;;;;;;;;;;24.76;58.85;101103.19;4860194;29;6908;-72
2023/07/10 05:59:00;;;;;;;;;;;;;;;24.87;58.47;101112.00;4840480;29;6760;-72
2023/07/10 06:01:26;;;;;;;;;;;;;;;24.98;58.29;101100.63;4861729;29;6924;-72
2023/07/10 06:03:51;;;;;;;;;;;;;;;25.05;57.94;101107.59;4841303;29;6761;-72
2023/07/10 06:06:17;;;;;;;;;;;;;;;25.10;57.76;101104.06;4843367;29;6999;-72
2023/07/10 06:08:42;;;;;;;;;;;;;;;25.15;57.76;101100.59;4844093;29;6772;-72
2023/07/10 06:11:08;;;;;;;;;;;;;;;25.16;57.34;101108.47;4859724;29;9981;-72
2023/07/10 06:13:34;;;;;;;;;;;;;;;25.19;56.97;101111.09;4824306;29;7106;-71
2023/07/10 06:15:59;;;;;;;;;;;;;;;25.19;56.48;101110.19;4844538;29;6773;-71
2023/07/10 06:18:26;;;;;;;;;;;;;;;25.17;56.02;101110.22;4843773;29;7742;-71
2023/07/10 06:20:57;;;;;;;;;;;;;;;25.15;55.94;101116.34;4845346;29;7324;-71
2023/07/10 06:23:24;;;;;;;;;;;;;;;25.17;56.15;101119.81;4860945;29;6865;-71
2023/07/10 06:25:50;;;;;;;;;;;;;;;25.23;56.47;101125.91;4842775;29;7238;-71
2023/07/10 06:28:16;;;;;;;;;;;;;;;25.33;55.68;101126.78;4860742;29;6797;-71
2023/07/10 06:30:43;;;;;;;;;;;;;;;25.49;55.09;101132.00;4860418;29;6825;-71
2023/07/10 06:33:10;;;;;;;;;;;;;;;25.63;54.16;101130.25;4842511;29;7013;-71
2023/07/10 06:35:35;;;;;;;;;;;;;;;25.77;54.01;101121.44;4857670;29;7217;-71
2023/07/10 06:38:01;;;;;;;;;;;;;;;25.95;54.02;101130.13;4859050;29;6821;-71
2023/07/10 06:40:26;;;;;;;;;;;;;;;26.11;53.55;101123.94;4839960;29;7207;-71
2023/07/10 06:42:52;;;;;;;;;;;;;;;26.29;53.26;101124.75;4845265;29;6761;-71
2023/07/10 06:45:17;;;;;;;;;;;;;;;26.43;52.46;101122.88;4859345;29;7010;-71
2023/07/10 06:47:44;;;;;;;;;;;;;;;26.52;51.70;101131.59;4843007;29;6768;-71
2023/07/10 06:50:13;;;;;;;;;;;;;;;26.52;51.31;101134.22;4864028;29;7223;-70
2023/07/10 06:52:41;;;;;;;;;;;;;;;26.42;50.17;101131.66;4841074;29;6989;-71
2023/07/10 06:55:10;;;;;;;;;;;;;;;26.33;50.24;101135.22;4845136;29;6945;-72
2023/07/10 06:57:35;;;;;;;;;;;;;;;26.24;50.10;101137.00;4838946;29;7991;-72
2023/07/10 07:00:01;;;;;;;;;;;;;;;26.23;50.21;101133.53;4844761;29;6752;-72
2023/07/10 07:02:26;;;;;;;;;;;;;;;26.29;50.55;101132.63;4838554;29;6980;-72
2023/07/10 07:04:52;;;;;;;;;;;;;;;26.40;50.93;101138.69;4843595;29;6939;-72
2023/07/10 07:07:17;;;;;;;;;;;;;;;26.60;50.74;101137.66;4859083;29;6932;-72
2023/07/10 07:09:43;;;;;;;;;;;;;;;26.84;50.91;101136.59;4849324;29;6792;-72
2023/07/10 07:12:10;;;;;;;;;;;;;;;27.10;50.52;101135.56;4863837;29;6956;-72
2023/07/10 07:14:35;;;;;;;;;;;;;;;27.40;50.74;101141.38;4839569;29;6836;-72
2023/07/10 07:17:01;;;;;;;;;;;;;;;27.71;50.33;101135.81;4824959;29;6840;-72
2023/07/10 07:19:26;;;;;;;;;;;;;;;28.04;50.01;101138.03;4841728;29;6765;-72
2023/07/10 07:21:52;;;;;;;;;;;;;;;28.35;48.77;101136.78;4842364;29;6976;-72
2023/07/10 07:24:18;;;;;;;;;;;;;;;28.64;48.49;101135.47;4823883;29;7216;-72
2023/07/10 07:26:43;;;;;;;;;;;;;;;28.93;47.08;101134.13;4859638;29;6878;-72
2023/07/10 07:29:08;;;;;;;;;;;;;;;29.23;47.23;101135.34;4857519;29;6749;-72
2023/07/10 07:31:34;;;;;;;;;;;;;;;29.57;46.70;101138.28;4839807;29;6972;-72
2023/07/10 07:33:59;;;;;;;;;;;;;;;29.91;46.10;101141.09;4827989;29;7092;-72
2023/07/10 07:36:25;;;;;;;;;;;;;;;30.17;44.59;101138.81;4846261;29;6756;-72
2023/07/10 07:38:50;;;;;;;;;;;;;;;30.35;44.05;101137.50;4860998;29;6761;-70
2023/07/10 07:41:16;;;;;;;;;;;;;;;30.51;43.55;101138.00;4825614;29;7257;-72
2023/07/10 07:43:41;;;;;;;;;;;;;;;30.66;43.00;101138.59;4844109;29;6764;-70
2023/07/10 07:46:07;;;;;;;;;;;;;;;30.83;42.06;101138.16;4840026;29;6960;-70
2023/07/10 07:48:32;;;;;;;;;;;;;;;30.99;41.57;101133.31;4853291;29;7062;-70
2023/07/10 07:51:05;;;;;;;;;;;;;;;31.15;41.56;101133.81;4840181;29;6769;-71
2023/07/10 07:53:33;;;;;;;;;;;;;;;31.32;41.11;101141.31;4819692;29;10206;-70
2023/07/10 07:55:59;;;;;;;;;;;;;;;31.50;40.52;101147.03;4824888;29;6960;-71
2023/07/10 07:58:25;;;;;;;;;;;;;;;31.63;39.96;101150.16;4838187;29;7038;-70
2023/07/10 08:00:51;;;;;;;;;;;;;;;31.73;39.75;101146.38;4827464;29;6963;-70
2023/07/10 08:03:16;;;;;;;;;;;;;;;31.87;39.36;101143.34;4842891;29;7008;-70
2023/07/10 08:05:42;;;;;;;;;;;;;;;32.04;38.87;101144.59;4843325;29;7076;-70
2023/07/10 08:08:10;;;;;;;;;;;;;;;32.20;38.42;101140.56;4839492;29;6824;-71
2023/07/10 08:10:39;;;;;;;;;;;;;;;32.35;37.75;101133.91;4844353;29;6793;-70
2023/07/10 08:13:05;;;;;;;;;;;;;;;32.50;37.70;101137.88;4845587;29;6777;-70
2023/07/10 08:15:31;;;;;;;;;;;;;;;32.65;36.70;101136.50;4829767;29;6908;-70
2023/07/10 08:17:57;;;;;;;;;;;;;;;32.78;36.76;101131.66;4845350;29;6773;-69
2023/07/10 08:20:22;;;;;;;;;;;;;;;32.85;36.36;101123.50;4843610;29;7191;-68
2023/07/10 08:22:48;;;;;;;;;;;;;;;32.92;35.93;101131.22;4828007;29;10331;-68
2023/07/10 08:25:13;;;;;;;;;;;;;;;33.06;36.09;101127.19;4840870;29;7094;-69
2023/07/10 08:27:40;;;;;;;;;;;;;;;33.23;35.40;101127.47;4859159;29;6768;-67
2023/07/10 08:30:07;;;;;;;;;;;;;;;33.38;34.93;101126.03;4859018;29;6851;-67
2023/07/10 08:32:32;;;;;;;;;;;;;;;33.54;35.14;101125.53;4862139;29;7305;-69
2023/07/10 08:34:58;;;;;;;;;;;;;;;33.74;35.10;101131.88;4844924;29;6773;-68
2023/07/10 08:37:23;;;;;;;;;;;;;;;33.99;34.38;101130.91;4852105;29;6940;-69
2023/07/10 08:39:49;;;;;;;;;;;;;;;34.24;34.22;101129.97;4838687;29;6757;-71
2023/07/10 08:42:28;;;;;;;;;;;;;;;34.48;34.00;101122.78;4837946;29;6923;-68
2023/07/10 08:44:55;;;;;;;;;;;;;;;34.71;32.66;101118.31;4839054;29;6979;-68
2023/07/10 08:47:30;;;;;;;;;;;;;;;34.81;32.72;101124.13;4837599;29;6793;-69
2023/07/10 08:50:15;;;;;;;;;;;;;;;35.03;32.44;101122.22;4836284;29;6817;-69
2023/07/10 08:53:11;;;;;;;;;;;;;;;35.42;31.83;101120.56;4841166;29;6805;-69
2023/07/10 08:55:56;;;;;;;;;;;;;;;35.73;31.97;101123.63;4837209;29;6970;-68
2023/07/10 08:58:27;;;;;;;;;;;;;;;35.95;31.54;101114.63;4843905;29;6797;-70
2023/07/10 09:00:59;;;;;;;;;;;;;;;36.19;30.98;101112.59;4843652;29;7342;-69
2023/07/10 09:03:34;;;;;;;;;;;;;;;36.36;30.58;101105.53;4821974;29;7033;-69
2023/07/10 09:06:03;;;;;;;;;;;;;;;36.42;29.97;101107.91;4865445;29;6987;-68
2023/07/10 09:08:32;;;;;;;;;;;;;;;36.63;30.12;101114.00;4864999;29;7276;-69
2023/07/10 09:11:02;;;;;;;;;;;;;;;36.83;29.59;101114.78;4842582;29;6796;-69
2023/07/10 09:13:32;;;;;;;;;;;;;;;37.06;29.58;101104.72;4826003;29;7088;-68
2023/07/10 09:15:59;;;;;;;;;;;;;;;37.24;29.38;101110.91;4835468;29;7445;-68
2023/07/10 09:18:40;;;;;;;;;;;;;;;37.48;29.16;101102.47;4857256;29;6808;-69
2023/07/10 09:21:16;;;;;;;;;;;;;;;37.72;28.58;101097.59;4846586;29;6979;-69
2023/07/10 09:23:43;;;;;;;;;;;;;;;38.00;28.03;101105.84;4851341;29;6899;-70
2023/07/10 09:26:14;;;;;;;;;;;;;;;38.29;27.88;101096.19;4865309;29;6800;-70
2023/07/10 09:28:41;;;;;;;;;;;;;;;38.56;27.48;101095.53;4842711;29;8259;-70
2023/07/10 09:31:54;;;;;;;;;;;;;;;38.71;27.29;101111.63;4821331;29;6927;-69
2023/07/10 09:34:22;;;;;;;;;;;;;;;38.71;27.03;101107.13;4843487;29;6983;-68
2023/07/10 09:36:52;;;;;;;;;;;;;;;38.75;27.33;101108.66;4860765;29;6835;-71
2023/07/10 09:39:19;;;;;;;;;;;;;;;38.94;27.03;101107.53;4862232;29;6920;-71
2023/07/10 09:41:46;;;;;;;;;;;;;;;39.06;26.59;101097.91;4848527;29;6784;-68
2023/07/10 09:44:18;;;;;;;;;;;;;;;39.12;26.43;101110.94;4841375;29;6781;-69
2023/07/10 09:46:44;;;;;;;;;;;;;;;39.14;26.23;101117.06;4844446;29;6945;-68
2023/07/10 09:49:17;;;;;;;;;;;;;;;39.20;26.05;101115.81;4863312;29;6808;-70
2023/07/10 09:52:03;;;;;;;;;;;;;;;39.19;25.53;101115.91;4850351;29;6827;-70
2023/07/10 09:54:37;;;;;;;;;;;;;;;39.31;25.15;101104.44;4866965;29;6872;-68
2023/07/10 09:57:11;;;;;;;;;;;;;;;39.55;24.96;101110.09;4827114;29;7236;-70
2023/07/10 09:59:37;;;;;;;;;;;;;;;39.70;24.85;101100.19;4837797;29;6870;-67
2023/07/10 10:02:23;;;;;;;;;;;;;;;39.85;24.41;101108.19;4860795;29;6753;-69
2023/07/10 10:04:53;;;;;;;;;;;;;;;40.03;24.08;101111.50;4845270;29;6796;-69
2023/07/10 10:07:21;;;;;;;;;;;;;;;40.26;23.58;101103.75;4844033;29;7407;-68
2023/07/10 10:09:47;;;;;;;;;;;;;;;40.36;24.02;101101.31;4840643;29;6793;-67
2023/07/10 10:12:23;;;;;;;;;;;;;;;40.39;23.03;101093.91;4859735;29;6793;-71
2023/07/10 10:15:04;;;;;;;;;;;;;;;39.80;23.47;101104.97;4862391;29;6776;-71
2023/07/10 10:17:38;;;;;;;;;;;;;;;39.54;23.45;101099.44;4863414;29;6761;-68
2023/07/10 10:20:19;;;;;;;;;;;;;;;39.48;23.70;101113.25;4844137;29;6983;-68
2023/07/10 10:22:47;;;;;;;;;;;;;;;39.54;23.53;101111.03;4850709;29;6992;-69
2023/07/10 10:25:15;;;;;;;;;;;;;;;39.46;23.60;101105.31;4845458;29;7048;-69
2023/07/10 10:28:01;;;;;;;;;;;;;;;39.41;23.65;101094.88;4842103;29;6777;-69
2023/07/10 10:30:41;;;;;;;;;;;;;;;39.42;23.71;101101.97;4843456;29;6777;-68
2023/07/10 10:33:14;;;;;;;;;;;;;;;39.29;23.56;101099.16;4845333;29;6899;-68
2023/07/10 10:36:02;;;;;;;;;;;;;;;38.95;23.79;101095.91;4842232;29;7297;-69
2023/07/10 10:38:35;;;;;;;;;;;;;;;38.80;23.85;101088.78;4840685;29;6809;-69
2023/07/10 10:41:26;;;;;;;;;;;;;;;38.95;24.23;101086.97;4842520;29;7061;-68
2023/07/10 10:44:15;;;;;;;;;;;;;;;39.14;23.83;101078.69;4842056;29;6805;-70
2023/07/10 10:46:50;;;;;;;;;;;;;;;39.26;22.83;101080.59;4843569;29;7027;-71
2023/07/10 10:49:48;;;;;;;;;;;;;;;39.16;22.82;101085.66;4847877;29;6860;-71
2023/07/10 10:52:26;;;;;;;;;;;;;;;39.08;23.06;101089.81;4844948;29;7152;-71
2023/07/10 10:55:31;;;;;;;;;;;;;;;39.31;23.34;101091.88;4844958;29;6785;-71
2023/07/10 10:58:06;;;;;;;;;;;;;;;39.59;22.90;101097.31;4842322;29;6805;-72
2023/07/10 11:00:53;;;;;;;;;;;;;;;39.71;22.74;101088.50;4843213;29;6805;-72
2023/07/10 11:03:31;;;;;;;;;;;;;;;39.91;22.73;101086.34;4845179;29;6801;-71
2023/07/10 11:06:15;;;;;;;;;;;;;;;40.16;22.77;101087.38;4839327;29;7204;-72
2023/07/10 11:08:46;;;;;;;;;;;;;;;40.24;22.51;101087.72;4840181;29;6925;-71
2023/07/10 11:11:38;;;;;;;;;;;;;;;40.44;22.22;101082.88;4857717;29;6845;-71
2023/07/10 11:14:06;;;;;;;;;;;;;;;40.61;22.14;101076.34;4847690;29;6789;-71
2023/07/10 11:16:33;;;;;;;;;;;;;;;40.68;21.88;101080.31;4860262;29;6832;-71
2023/07/10 11:19:01;;;;;;;;;;;;;;;40.72;21.31;101080.97;4845773;29;6839;-71
2023/07/10 11:21:28;;;;;;;;;;;;;;;40.52;21.61;101093.94;4845499;29;6813;-71
2023/07/10 11:23:54;;;;;;;;;;;;;;;40.24;21.83;101077.00;4828937;29;7182;-72
2023/07/10 11:26:26;;;;;;;;;;;;;;;40.28;21.82;101093.75;4825483;29;6991;-71
2023/07/10 11:29:00;;;;;;;;;;;;;;;40.38;21.64;101084.16;4844331;29;7199;-72
2023/07/10 11:31:32;;;;;;;;;;;;;;;40.32;21.35;101079.19;4862115;29;6785;-71
2023/07/10 11:34:06;;;;;;;;;;;;;;;39.85;21.20;101081.34;4841396;29;6868;-71
2023/07/10 11:36:43;;;;;;;;;;;;;;;39.08;22.10;101084.44;4842087;29;7126;-72
2023/07/10 11:39:09;;;;;;;;;;;;;;;38.98;22.44;101086.81;4841907;29;6800;-71
2023/07/10 11:41:35;;;;;;;;;;;;;;;39.02;22.28;101088.38;4842495;29;6971;-71
2023/07/10 11:44:27;;;;;;;;;;;;;;;38.85;22.24;101089.34;4842654;29;6783;-72
2023/07/10 11:47:04;;;;;;;;;;;;;;;38.45;22.25;101088.09;4841014;29;6865;-71
2023/07/10 11:50:05;;;;;;;;;;;;;;;37.67;22.69;101083.66;4843166;29;7034;-71
2023/07/10 11:52:32;;;;;;;;;;;;;;;37.66;23.36;101079.22;4840300;29;6819;-70
2023/07/10 11:54:58;;;;;;;;;;;;;;;38.11;23.13;101078.53;4840161;29;7104;-71
2023/07/10 11:57:43;;;;;;;;;;;;;;;38.61;23.24;101080.03;4843232;29;6831;-71
2023/07/10 12:00:14;;;;;;;;;;;;;;;39.14;22.77;101076.88;4842651;29;7930;-71
2023/07/10 12:02:46;;;;;;;;;;;;;;;39.52;22.46;101079.94;4842031;29;13112;-71
2023/07/10 12:05:19;;;;;;;;;;;;;;;39.87;21.99;101075.94;4855462;29;6994;-71
2023/07/10 12:08:06;;;;;;;;;;;;;;;39.52;22.00;101077.25;4843280;29;7154;-71
2023/07/10 12:10:37;;;;;;;;;;;;;;;39.23;22.28;101070.06;4839734;29;6789;-71
2023/07/10 12:13:17;;;;;;;;;;;;;;;39.37;22.10;101071.88;4846865;29;6972;-71
2023/07/10 12:15:43;;;;;;;;;;;;;;;39.76;21.99;101049.78;4842517;29;6817;-70
2023/07/10 12:18:08;;;;;;;;;;;;;;;40.18;21.55;101049.72;4841530;29;10793;-71
2023/07/10 12:20:35;;;;;;;;;;;;;;;40.08;21.08;101049.47;4839400;29;7242;-71
2023/07/10 12:23:11;;;;;;;;;;;;;;;39.60;21.93;101045.44;4862991;29;6793;-71
2023/07/10 12:25:37;;;;;;;;;;;;;;;39.66;21.68;101049.53;4863743;29;7870;-71
2023/07/10 12:28:11;;;;;;;;;;;;;;;39.96;21.80;101043.97;4842423;29;6937;-71
2023/07/10 12:30:38;;;;;;;;;;;;;;;40.38;21.29;101051.09;4825137;29;7004;-71
2023/07/10 12:33:39;;;;;;;;;;;;;;;40.76;21.19;101055.66;4841430;29;6945;-71
2023/07/10 12:36:25;;;;;;;;;;;;;;;40.76;20.97;101047.59;4856678;29;6801;-71
2023/07/10 12:38:53;;;;;;;;;;;;;;;40.81;20.79;101042.72;4823449;29;6847;-71
2023/07/10 12:41:19;;;;;;;;;;;;;;;40.97;20.55;101041.66;4855565;29;7121;-72
2023/07/10 12:43:52;;;;;;;;;;;;;;;40.82;20.86;101041.75;4842936;29;6765;-71
2023/07/10 12:46:25;;;;;;;;;;;;;;;40.12;20.62;101041.09;4823569;29;7175;-71
2023/07/10 12:49:06;;;;;;;;;;;;;;;39.44;20.92;101045.56;4855505;29;7227;-69
2023/07/10 12:51:38;;;;;;;;;;;;;;;39.29;21.36;101052.72;4826004;29;6987;-69
2023/07/10 12:54:15;;;;;;;;;;;;;;;39.15;21.26;101041.06;4820964;29;6971;-70
2023/07/10 12:56:41;;;;;;;;;;;;;;;39.06;21.42;101035.44;4840912;29;7220;-67